createdAt,value
2018-09-03T00:00:42.587Z,19.93
2018-09-03T00:03:11.827Z,19.23
2018-09-03T00:05:41.081Z,20.90
2018-09-03T00:08:10.318Z,22.17
2018-09-03T00:10:39.547Z,22.63
2018-09-03T00:13:08.807Z,21.70
2018-09-03T00:15:38.063Z,24.43
2018-09-03T00:18:07.314Z,24.60
2018-09-03T00:20:36.534Z,22.67
2018-09-03T00:23:05.800Z,23.80
2018-09-03T00:25:35.050Z,23.87
2018-09-03T00:28:04.323Z,24.47
2018-09-03T00:30:33.531Z,21.17
2018-09-03T00:33:07.902Z,20.40
2018-09-03T00:35:42.354Z,22.57
2018-09-03T00:38:16.843Z,21.03
2018-09-03T00:40:51.196Z,21.50
2018-09-03T00:43:25.571Z,21.37
2018-09-03T00:47:06.181Z,20.90
2018-09-03T00:49:35.414Z,21.20
2018-09-03T00:52:04.658Z,20.00
2018-09-03T00:54:34.370Z,21.65
2018-09-03T00:57:03.626Z,21.90
2018-09-03T00:59:32.866Z,22.80
2018-09-03T01:02:02.173Z,23.93
2018-09-03T01:04:31.419Z,24.43
2018-09-03T01:07:00.646Z,25.40
2018-09-03T01:09:29.900Z,24.07
2018-09-03T01:11:59.145Z,24.00
2018-09-03T01:14:28.370Z,23.20
2018-09-03T01:16:57.626Z,23.17
2018-09-03T01:19:26.863Z,23.63
2018-09-03T01:21:56.105Z,25.37
2018-09-03T01:24:25.319Z,25.33
2018-09-03T01:26:54.571Z,23.83
2018-09-03T01:29:23.835Z,22.37
2018-09-03T01:31:55.874Z,22.10
2018-09-03T01:34:26.421Z,21.93
2018-09-03T01:36:55.776Z,22.27
2018-09-03T01:39:25.791Z,21.27
2018-09-03T01:41:55.018Z,21.17
2018-09-03T01:44:24.261Z,22.30
2018-09-03T01:46:53.481Z,23.33
2018-09-03T01:49:22.716Z,22.63
2018-09-03T01:51:51.960Z,21.30
2018-09-03T01:54:21.219Z,22.13
2018-09-03T01:56:50.446Z,21.03
2018-09-03T01:59:19.710Z,20.73
2018-09-03T02:01:48.925Z,20.07
2018-09-03T02:04:18.163Z,18.97
2018-09-03T02:06:47.403Z,20.20
2018-09-03T02:09:16.655Z,19.93
2018-09-03T02:11:45.908Z,22.23
2018-09-03T02:14:15.154Z,21.93
2018-09-03T02:16:44.403Z,20.00
2018-09-03T02:19:13.695Z,19.97
2018-09-03T02:21:42.916Z,19.13
2018-09-03T02:24:12.145Z,19.93
2018-09-03T02:26:41.399Z,22.57
2018-09-03T02:29:10.650Z,29.70
2018-09-03T02:31:39.898Z,23.50
2018-09-03T02:34:09.134Z,25.37
2018-09-03T02:36:38.366Z,25.97
2018-09-03T02:39:08.585Z,25.03
2018-09-03T02:41:37.835Z,25.60
2018-09-03T02:44:07.352Z,24.43
2018-09-03T02:46:36.591Z,26.45
2018-09-03T02:49:06.282Z,34.30
2018-09-03T02:51:35.558Z,34.40
2018-09-03T02:54:04.800Z,31.63
2018-09-03T02:56:34.043Z,36.77
2018-09-03T02:59:03.308Z,35.63
2018-09-03T03:01:32.547Z,34.10
2018-09-03T03:04:01.810Z,33.17
2018-09-03T03:06:31.010Z,39.63
2018-09-03T03:09:00.240Z,36.90
2018-09-03T03:11:29.503Z,36.67
2018-09-03T03:13:58.739Z,52.70
2018-09-03T03:16:28.866Z,47.33
2018-09-03T03:18:58.111Z,44.40
2018-09-03T03:21:27.351Z,52.95
2018-09-03T03:23:56.653Z,48.67
2018-09-03T03:26:25.891Z,42.07
2018-09-03T03:28:55.131Z,41.03
2018-09-03T03:31:24.392Z,44.70
2018-09-03T03:33:53.896Z,37.57
2018-09-03T03:36:23.334Z,49.07
2018-09-03T03:38:52.569Z,44.77
2018-09-03T03:41:21.818Z,45.50
2018-09-03T03:43:51.065Z,44.40
2018-09-03T03:46:20.307Z,33.10
2018-09-03T03:48:49.712Z,28.95
2018-09-03T03:51:18.783Z,25.80
2018-09-03T03:53:48.035Z,29.37
2018-09-03T03:56:17.545Z,27.47
2018-09-03T03:58:46.812Z,34.17
2018-09-03T04:01:16.056Z,31.87
2018-09-03T04:03:45.305Z,29.67
2018-09-03T04:06:14.534Z,28.33
2018-09-03T04:08:43.795Z,28.57
2018-09-03T04:11:13.059Z,34.63
2018-09-03T04:13:42.293Z,26.07
2018-09-03T04:16:11.555Z,24.47
2018-09-03T04:18:40.797Z,23.67
2018-09-03T04:21:10.075Z,30.40
2018-09-03T04:23:39.322Z,30.40
2018-09-03T04:26:08.579Z,33.10
2018-09-03T04:28:37.879Z,27.93
2018-09-03T04:31:07.066Z,30.27
2018-09-03T04:33:36.319Z,31.23
2018-09-03T04:36:05.620Z,37.53
2018-09-03T04:38:34.888Z,35.57
2018-09-03T04:41:04.103Z,30.40
2018-09-03T04:43:33.369Z,32.27
2018-09-03T04:46:02.658Z,41.10
2018-09-03T04:48:31.891Z,43.30
2018-09-03T04:51:01.241Z,36.80
2018-09-03T04:53:30.507Z,37.65
2018-09-03T04:55:59.743Z,35.13
2018-09-03T04:58:28.986Z,35.50
2018-09-03T05:00:58.219Z,32.27
2018-09-03T05:03:27.456Z,34.63
2018-09-03T05:05:56.744Z,30.63
2018-09-03T05:08:25.942Z,28.47
2018-09-03T05:10:55.199Z,26.73
2018-09-03T05:13:24.443Z,29.03
2018-09-03T05:15:53.695Z,29.90
2018-09-03T05:18:22.947Z,28.93
2018-09-03T05:20:52.186Z,29.13
2018-09-03T05:23:21.465Z,27.30
2018-09-03T05:25:50.720Z,29.37
2018-09-03T05:33:17.584Z,32.07
2018-09-03T05:35:46.825Z,32.43
2018-09-03T05:38:16.130Z,27.60
2018-09-03T05:40:45.382Z,24.77
2018-09-03T05:43:14.746Z,26.80
2018-09-03T05:45:44.962Z,24.87
2018-09-03T05:48:14.318Z,23.90
2018-09-03T05:50:43.890Z,26.03
2018-09-03T05:53:13.170Z,25.10
2018-09-03T05:55:42.430Z,27.93
2018-09-03T05:58:11.690Z,26.50
2018-09-03T06:00:40.927Z,25.03
2018-09-03T06:03:10.182Z,27.57
2018-09-03T06:05:39.423Z,27.70
2018-09-03T06:08:08.709Z,30.00
2018-09-03T06:10:37.979Z,26.37
2018-09-03T06:13:07.205Z,24.23
2018-09-03T06:15:36.479Z,23.03
2018-09-03T06:18:05.926Z,20.90
2018-09-03T06:20:35.195Z,22.33
2018-09-03T06:23:04.430Z,19.75
2018-09-03T06:25:33.662Z,19.73
2018-09-03T06:28:02.927Z,19.17
2018-09-03T06:30:32.194Z,19.37
2018-09-03T06:33:01.435Z,17.57
2018-09-03T06:35:30.713Z,18.50
2018-09-03T06:37:59.971Z,19.17
2018-09-03T06:40:29.221Z,18.80
2018-09-03T06:42:58.458Z,20.00
2018-09-03T06:45:27.728Z,18.65
2018-09-03T06:47:56.956Z,18.23
2018-09-03T06:50:27.447Z,19.07
2018-09-03T06:52:56.687Z,19.27
2018-09-03T06:55:25.947Z,18.17
2018-09-03T06:57:55.201Z,17.62
2018-09-03T07:00:24.452Z,16.93
2018-09-03T07:02:53.711Z,16.07
2018-09-03T07:05:22.947Z,17.47
2018-09-03T07:07:52.224Z,17.27
2018-09-03T07:10:21.460Z,16.30
2018-09-03T07:12:50.850Z,17.07
2018-09-03T07:15:20.078Z,16.77
2018-09-03T07:17:49.319Z,16.90
2018-09-03T07:20:18.562Z,15.67
2018-09-03T07:22:48.076Z,16.67
2018-09-03T07:25:17.307Z,16.47
2018-09-03T07:27:46.541Z,16.17
2018-09-03T07:30:15.775Z,15.60
2018-09-03T07:32:45.043Z,15.97
2018-09-03T07:35:14.306Z,16.47
2018-09-03T07:37:43.515Z,16.93
2018-09-03T07:40:12.745Z,16.33
2018-09-03T07:42:41.991Z,15.90
2018-09-03T07:45:11.231Z,15.10
2018-09-03T07:47:40.474Z,16.47
2018-09-03T07:50:09.711Z,16.17
2018-09-03T07:52:39.003Z,15.73
2018-09-03T07:55:08.320Z,16.80
2018-09-03T07:57:37.527Z,17.05
2018-09-03T08:00:07.151Z,16.13
2018-09-03T08:02:36.399Z,17.47
2018-09-03T08:05:05.710Z,16.63
2018-09-03T08:07:34.956Z,16.53
2018-09-03T08:10:04.208Z,15.60
2018-09-03T08:12:33.459Z,15.33
2018-09-03T08:15:02.704Z,15.57
2018-09-03T08:17:31.942Z,15.00
2018-09-03T08:20:01.252Z,15.00
2018-09-03T08:22:30.438Z,15.03
2018-09-03T08:24:59.726Z,13.20
2018-09-03T08:27:28.994Z,13.97
2018-09-03T08:29:58.238Z,13.33
2018-09-03T08:32:27.511Z,15.17
2018-09-03T08:34:57.175Z,14.27
2018-09-03T08:37:26.431Z,14.63
2018-09-03T08:39:55.740Z,13.67
2018-09-03T08:42:24.964Z,13.13
2018-09-03T08:44:54.234Z,12.80
2018-09-03T08:47:23.440Z,12.97
2018-09-03T08:49:52.696Z,10.47
2018-09-03T08:52:21.920Z,11.07
2018-09-03T08:54:51.162Z,10.03
2018-09-03T08:57:20.403Z,9.93
2018-09-03T08:59:49.652Z,9.27
2018-09-03T09:02:19.728Z,9.86
2018-09-03T09:04:48.948Z,9.97
2018-09-03T09:07:18.179Z,8.78
2018-09-03T09:09:47.424Z,8.53
2018-09-03T09:12:16.675Z,8.67
2018-09-03T09:14:45.923Z,8.30
2018-09-03T09:17:15.194Z,8.60
2018-09-03T09:19:44.447Z,7.60
2018-09-03T09:22:13.680Z,6.80
2018-09-03T09:24:42.903Z,7.80
2018-09-03T09:27:12.133Z,7.47
2018-09-03T09:29:41.375Z,7.17
2018-09-03T09:32:10.608Z,7.43
2018-09-03T09:34:39.863Z,6.47
2018-09-03T09:37:09.104Z,6.93
2018-09-03T09:39:38.327Z,6.63
2018-09-03T09:42:07.579Z,5.78
2018-09-03T09:44:36.798Z,5.00
2018-09-03T09:47:06.024Z,5.80
2018-09-03T09:49:35.262Z,5.20
2018-09-03T09:52:04.495Z,5.93
2018-09-03T09:54:33.731Z,5.77
2018-09-03T09:57:02.966Z,5.50
2018-09-03T09:59:32.203Z,5.20
2018-09-03T10:02:01.440Z,5.20
2018-09-03T10:04:30.680Z,5.83
2018-09-03T10:06:59.899Z,5.67
2018-09-03T10:09:29.415Z,6.07
2018-09-03T10:11:58.631Z,5.60
2018-09-03T10:14:29.108Z,5.67
2018-09-03T10:16:58.343Z,5.58
2018-09-03T10:19:27.595Z,5.80
2018-09-03T10:21:56.832Z,6.08
2018-09-03T10:24:26.063Z,5.78
2018-09-03T10:26:55.308Z,5.65
2018-09-03T10:29:24.559Z,5.70
2018-09-03T10:31:53.947Z,5.43
2018-09-03T10:34:23.141Z,5.10
2018-09-03T10:36:52.371Z,4.40
2018-09-03T10:39:21.604Z,4.90
2018-09-03T10:41:50.915Z,5.00
2018-09-03T10:44:20.165Z,4.40
2018-09-03T10:46:50.208Z,4.10
2018-09-03T10:49:19.422Z,4.17
2018-09-03T10:51:48.677Z,4.72
2018-09-03T10:54:17.879Z,3.98
2018-09-03T10:56:47.102Z,4.33
2018-09-03T10:59:16.326Z,4.60
2018-09-03T11:01:45.559Z,4.60
2018-09-03T11:04:14.760Z,4.45
2018-09-03T11:06:43.974Z,4.47
2018-09-03T11:09:13.181Z,4.00
2018-09-03T11:11:42.408Z,4.33
2018-09-03T11:14:11.633Z,4.12
2018-09-03T11:16:40.936Z,4.00
2018-09-03T11:19:10.154Z,3.40
2018-09-03T11:21:39.466Z,3.25
2018-09-03T11:24:08.553Z,3.55
2018-09-03T11:26:37.758Z,3.37
2018-09-03T11:29:06.959Z,2.90
2018-09-03T11:31:36.165Z,3.33
2018-09-03T11:34:05.375Z,3.27
2018-09-03T11:36:34.600Z,3.90
2018-09-03T11:39:05.456Z,3.60
2018-09-03T11:41:34.681Z,4.60
2018-09-03T11:44:04.522Z,4.30
2018-09-03T11:46:33.947Z,4.90
2018-09-03T11:49:03.159Z,4.54
2018-09-03T11:51:32.387Z,5.25
2018-09-03T11:54:01.631Z,4.42
2018-09-03T11:56:30.852Z,5.20
2018-09-03T11:59:00.072Z,4.57
2018-09-03T12:01:29.283Z,4.67
2018-09-03T12:03:58.489Z,4.30
2018-09-03T12:06:27.756Z,4.85
2018-09-03T12:08:56.918Z,4.50
2018-09-03T12:11:26.120Z,4.23
2018-09-03T12:13:55.333Z,3.97
2018-09-03T12:16:27.040Z,3.80
2018-09-03T12:18:59.288Z,4.10
2018-09-03T12:21:28.522Z,4.07
2018-09-03T12:23:57.732Z,3.93
2018-09-03T12:26:26.968Z,3.42
2018-09-03T12:28:56.186Z,3.27
2018-09-03T12:31:25.464Z,2.80
2018-09-03T12:33:54.627Z,3.55
2018-09-03T12:36:23.868Z,3.10
2018-09-03T12:38:53.055Z,3.10
2018-09-03T12:41:22.620Z,3.08
2018-09-03T12:43:51.819Z,3.10
2018-09-03T12:46:21.208Z,2.70
2018-09-03T12:48:50.493Z,3.00
2018-09-03T12:54:19.235Z,3.17
2018-09-03T12:56:48.444Z,2.92
2018-09-03T12:59:17.670Z,3.03
2018-09-03T13:01:46.896Z,3.20
2018-09-03T13:04:16.108Z,3.05
2018-09-03T13:06:45.339Z,3.20
2018-09-03T13:09:14.577Z,4.40
2018-09-03T13:11:43.794Z,2.98
2018-09-03T13:14:13.057Z,3.23
2018-09-03T13:16:42.271Z,3.22
2018-09-03T13:19:11.515Z,3.10
2018-09-03T13:21:40.753Z,3.00
2018-09-03T13:24:10.241Z,2.80
2018-09-03T13:26:39.459Z,2.83
2018-09-03T13:29:08.686Z,2.55
2018-09-03T13:31:37.905Z,2.90
2018-09-03T13:34:07.130Z,3.00
2018-09-03T13:36:36.386Z,3.03
2018-09-03T13:39:08.347Z,3.10
2018-09-03T13:41:37.580Z,2.80
2018-09-03T13:44:07.012Z,2.70
2018-09-03T13:46:36.266Z,2.70
2018-09-03T13:49:05.579Z,2.90
2018-09-03T13:51:34.812Z,3.00
2018-09-03T13:54:04.953Z,2.40
2018-09-03T13:56:34.207Z,2.65
2018-09-03T13:59:03.391Z,2.67
2018-09-03T14:01:32.587Z,2.33
2018-09-03T14:04:01.815Z,2.47
2018-09-03T14:06:31.040Z,2.45
2018-09-03T14:09:00.280Z,2.40
2018-09-03T14:11:29.579Z,2.47
2018-09-03T14:13:58.777Z,2.23
2018-09-03T14:16:27.987Z,2.30
2018-09-03T14:18:57.203Z,2.20
2018-09-03T14:21:26.423Z,2.30
2018-09-03T14:23:55.630Z,2.40
2018-09-03T14:26:24.857Z,3.60
2018-09-03T14:28:54.073Z,2.95
2018-09-03T14:31:23.470Z,2.70
2018-09-03T14:33:53.092Z,2.75
2018-09-03T14:36:22.344Z,3.10
2018-09-03T14:38:51.586Z,2.70
2018-09-03T14:41:20.807Z,2.90
2018-09-03T14:43:50.071Z,2.65
2018-09-03T14:46:19.439Z,2.42
2018-09-03T14:48:48.679Z,2.47
2018-09-03T14:51:17.909Z,2.70
2018-09-03T14:53:47.144Z,2.65
2018-09-03T14:56:16.415Z,3.15
2018-09-03T14:58:45.634Z,2.90
2018-09-03T15:01:14.852Z,3.30
2018-09-03T15:03:44.151Z,3.07
2018-09-03T15:06:13.319Z,3.00
2018-09-03T15:08:42.539Z,2.75
2018-09-03T15:11:11.782Z,3.35
2018-09-03T15:13:41.007Z,2.98
2018-09-03T15:16:10.339Z,2.70
2018-09-03T15:23:37.262Z,3.08
2018-09-03T15:26:06.505Z,2.90
2018-09-03T15:28:35.939Z,2.86
2018-09-03T15:31:05.172Z,3.00
2018-09-03T15:33:34.398Z,2.87
2018-09-03T15:36:03.682Z,2.87
2018-09-03T15:38:32.941Z,3.10
2018-09-03T15:41:02.163Z,2.92
2018-09-03T15:43:31.409Z,3.20
2018-09-03T15:46:00.603Z,3.20
2018-09-03T15:48:29.857Z,3.22
2018-09-03T15:50:59.059Z,3.02
2018-09-03T15:53:28.505Z,3.08
2018-09-03T15:55:59.135Z,3.15
2018-09-03T15:58:28.380Z,2.80
2018-09-03T16:00:57.698Z,3.00
2018-09-03T16:03:27.012Z,2.92
2018-09-03T16:05:56.351Z,2.72
2018-09-03T16:08:25.572Z,3.30
2018-09-03T16:10:55.010Z,3.27
2018-09-03T16:13:24.322Z,3.10
2018-09-03T16:15:53.542Z,3.30
2018-09-03T16:18:22.786Z,3.10
2018-09-03T16:20:52.024Z,3.60
2018-09-03T16:23:21.218Z,3.20
2018-09-03T16:25:50.426Z,3.53
2018-09-03T16:28:20.505Z,3.80
2018-09-03T16:30:49.710Z,3.27
2018-09-03T16:33:19.170Z,3.60
2018-09-03T16:35:48.382Z,4.03
2018-09-03T16:38:17.588Z,4.08
2018-09-03T16:40:46.815Z,3.95
2018-09-03T16:43:16.043Z,3.83
2018-09-03T16:45:45.275Z,4.00
2018-09-03T16:48:14.478Z,3.80
2018-09-03T16:50:43.739Z,4.40
2018-09-03T16:53:12.960Z,3.83
2018-09-03T16:55:42.271Z,4.10
2018-09-03T16:58:11.505Z,4.07
2018-09-03T17:00:40.726Z,4.40
2018-09-03T17:03:09.930Z,4.40
2018-09-03T17:05:39.154Z,4.40
2018-09-03T17:08:08.665Z,4.17
2018-09-03T17:10:37.791Z,4.55
2018-09-03T17:13:07.216Z,4.70
2018-09-03T17:15:36.451Z,4.20
2018-09-03T17:18:05.674Z,4.60
2018-09-03T17:20:34.970Z,4.10
2018-09-03T17:23:04.145Z,4.40
2018-09-03T17:25:33.360Z,4.50
2018-09-03T17:28:02.592Z,5.37
2018-09-03T17:30:31.830Z,4.37
2018-09-03T17:33:01.042Z,3.57
2018-09-03T17:35:30.260Z,3.40
2018-09-03T17:37:59.478Z,3.80
2018-09-03T17:40:29.931Z,4.05
2018-09-03T17:42:59.159Z,3.70
2018-09-03T17:45:28.706Z,3.80
2018-09-03T17:47:57.913Z,3.60
2018-09-03T17:50:27.272Z,3.57
2018-09-03T17:52:56.486Z,4.00
2018-09-03T17:55:25.768Z,3.97
2018-09-03T17:57:55.082Z,4.12
2018-09-03T18:00:24.311Z,3.60
2018-09-03T18:02:53.540Z,4.00
2018-09-03T18:05:22.791Z,3.73
2018-09-03T18:07:52.030Z,3.77
2018-09-03T18:10:21.262Z,3.83
2018-09-03T18:12:50.471Z,3.50
2018-09-03T18:15:19.855Z,3.83
2018-09-03T18:17:49.129Z,3.67
2018-09-03T18:20:18.377Z,4.03
2018-09-03T18:22:47.879Z,3.42
2018-09-03T18:25:17.098Z,3.83
2018-09-03T18:27:47.555Z,4.00
2018-09-03T18:30:17.125Z,4.20
2018-09-03T18:32:46.255Z,4.20
2018-09-03T18:35:15.495Z,4.20
2018-09-03T18:37:44.787Z,3.97
2018-09-03T18:40:14.026Z,3.70
2018-09-03T18:42:43.427Z,4.23
2018-09-03T18:45:12.667Z,4.00
2018-09-03T18:47:41.884Z,3.87
2018-09-03T18:50:12.771Z,4.10
2018-09-03T18:52:42.016Z,4.13
2018-09-03T18:55:11.378Z,3.77
2018-09-03T18:57:40.590Z,4.27
2018-09-03T19:00:09.946Z,4.03
2018-09-03T19:02:39.132Z,4.40
2018-09-03T19:05:08.359Z,4.53
2018-09-03T19:07:37.816Z,3.97
2018-09-03T19:10:07.132Z,3.73
2018-09-03T19:12:36.338Z,3.60
2018-09-03T19:15:06.369Z,3.60
2018-09-03T19:17:35.751Z,3.97
2018-09-03T19:20:04.977Z,4.20
2018-09-03T19:22:34.183Z,4.23
2018-09-03T19:25:03.519Z,3.90
2018-09-03T19:27:32.747Z,4.10
2018-09-03T19:30:02.036Z,4.27
2018-09-03T19:32:31.243Z,4.27
2018-09-03T19:35:00.507Z,4.67
2018-09-03T19:37:29.734Z,4.60
2018-09-03T19:39:58.960Z,4.63
2018-09-03T19:42:28.191Z,4.53
2018-09-03T19:44:57.451Z,4.60
2018-09-03T19:47:26.726Z,4.53
2018-09-03T19:49:55.967Z,4.20
2018-09-03T19:52:25.232Z,4.10
2018-09-03T19:54:54.575Z,4.13
2018-09-03T19:57:23.842Z,4.43
2018-09-03T19:59:53.078Z,4.40
2018-09-03T20:02:22.367Z,4.60
2018-09-03T20:04:51.850Z,4.80
2018-09-03T20:07:21.119Z,4.87
2018-09-03T20:09:50.331Z,5.20
2018-09-03T20:12:19.564Z,5.17
2018-09-03T20:14:48.787Z,4.90
2018-09-03T20:17:18.039Z,5.10
2018-09-03T20:19:47.230Z,6.83
2018-09-03T20:22:18.103Z,8.17
2018-09-03T20:24:47.323Z,7.90
2018-09-03T20:27:16.545Z,10.23
2018-09-03T20:29:45.918Z,9.37
2018-09-03T20:32:15.137Z,10.00
2018-09-03T20:34:44.362Z,12.30
2018-09-03T20:37:13.602Z,16.80
2018-09-03T20:39:42.831Z,22.37
2018-09-03T20:42:12.054Z,13.80
2018-09-03T20:44:41.579Z,32.23
2018-09-03T20:47:10.823Z,14.90
2018-09-03T20:49:40.075Z,13.83
2018-09-03T20:52:09.306Z,14.17
2018-09-03T20:54:38.531Z,14.57
2018-09-03T20:57:07.764Z,15.63
2018-09-03T20:59:36.995Z,14.47
2018-09-03T21:02:06.343Z,13.67
2018-09-03T21:04:35.570Z,16.70
2018-09-03T21:07:04.814Z,12.20
2018-09-03T21:09:34.048Z,12.60
2018-09-03T21:12:03.268Z,14.60
2018-09-03T21:14:32.591Z,10.30
2018-09-03T21:17:01.745Z,13.87
2018-09-03T21:19:30.986Z,13.50
2018-09-03T21:22:00.287Z,13.23
2018-09-03T21:24:29.440Z,10.90
2018-09-03T21:26:58.659Z,11.10
2018-09-03T21:29:27.892Z,11.47
2018-09-03T21:31:57.117Z,11.17
2018-09-03T21:34:26.348Z,11.03
2018-09-03T21:36:55.566Z,10.93
2018-09-03T21:39:24.953Z,11.17
2018-09-03T21:41:54.183Z,10.73
2018-09-03T21:44:23.423Z,11.60
2018-09-03T21:46:52.668Z,12.07
2018-09-03T21:49:21.928Z,11.97
2018-09-03T21:56:49.321Z,12.67
2018-09-03T21:59:18.879Z,11.43
2018-09-03T22:01:48.125Z,10.87
2018-09-03T22:04:17.354Z,10.47
2018-09-03T22:06:46.651Z,10.30
2018-09-03T22:09:15.885Z,11.23
2018-09-03T22:11:45.447Z,12.00
2018-09-03T22:14:14.714Z,11.70
2018-09-03T22:16:44.008Z,12.00
2018-09-03T22:19:13.230Z,12.07
2018-09-03T22:21:42.458Z,12.70
2018-09-03T22:24:11.727Z,13.03
2018-09-03T22:26:41.195Z,13.73
2018-09-03T22:29:10.514Z,14.20
2018-09-03T22:31:39.792Z,14.73
2018-09-03T22:34:09.031Z,15.33
2018-09-03T22:36:38.354Z,15.50
2018-09-03T22:39:08.065Z,15.50
2018-09-03T22:41:37.270Z,16.40
2018-09-03T22:44:06.801Z,16.03
2018-09-03T22:46:36.041Z,15.37
2018-09-03T22:49:05.336Z,15.80
2018-09-03T22:51:34.574Z,17.90
2018-09-03T22:54:03.805Z,17.83
2018-09-03T22:56:33.025Z,16.60
2018-09-03T22:59:02.262Z,16.83
2018-09-03T23:01:31.483Z,18.17
2018-09-03T23:04:00.709Z,17.27
2018-09-03T23:06:29.944Z,18.93
2018-09-03T23:08:59.167Z,18.57
2018-09-03T23:11:28.442Z,19.80
2018-09-03T23:13:57.663Z,19.93
2018-09-03T23:16:26.898Z,18.90
2018-09-03T23:18:56.115Z,18.97
2018-09-03T23:21:25.349Z,19.00
2018-09-03T23:23:54.620Z,17.60
2018-09-03T23:26:23.782Z,16.93
2018-09-03T23:28:52.986Z,16.47
2018-09-03T23:31:22.310Z,17.23
2018-09-03T23:33:51.605Z,17.20
2018-09-03T23:36:20.828Z,15.13
2018-09-03T23:38:50.040Z,15.20
2018-09-03T23:41:19.257Z,14.00
2018-09-03T23:46:22.844Z,14.40
2018-09-03T23:48:52.050Z,13.67
2018-09-03T23:51:21.283Z,13.67
2018-09-03T23:53:50.496Z,14.20
2018-09-03T23:56:19.701Z,13.73
2018-09-03T23:58:48.940Z,14.80
